createdAt,value
2023-01-17T00:00:24.753Z,0.16
2023-01-17T00:02:53.478Z,0.28
2023-01-17T00:05:39.550Z,0.20
2023-01-17T00:08:30.152Z,0.21
2023-01-17T00:11:00.269Z,0.31
2023-01-17T00:13:28.884Z,0.44
2023-01-17T00:15:57.402Z,0.36
2023-01-17T00:18:25.982Z,0.39
2023-01-17T00:21:11.527Z,0.42
2023-01-17T00:23:56.944Z,0.39
2023-01-17T00:26:26.955Z,0.36
2023-01-17T00:28:54.225Z,0.32
2023-01-17T00:31:21.474Z,0.43
2023-01-17T00:33:48.836Z,0.37
2023-01-17T00:36:16.174Z,0.35
2023-01-17T00:38:43.434Z,0.34
2023-01-17T00:41:12.319Z,0.36
2023-01-17T00:44:00.512Z,0.38
2023-01-17T00:46:46.680Z,0.36
2023-01-17T00:49:32.790Z,0.35
2023-01-17T00:52:19.487Z,0.33
2023-01-17T00:55:05.482Z,0.49
2023-01-17T00:57:51.530Z,0.35
2023-01-17T01:00:39.325Z,0.40
2023-01-17T01:03:27.912Z,0.38
2023-01-17T01:06:13.777Z,0.36
2023-01-17T01:08:59.754Z,0.37
2023-01-17T01:11:45.774Z,0.41
2023-01-17T01:14:31.819Z,0.46
2023-01-17T01:17:19.394Z,0.41
2023-01-17T01:20:05.473Z,0.36
2023-01-17T01:22:51.492Z,0.32
2023-01-17T01:25:37.639Z,0.46
2023-01-17T01:28:24.978Z,0.34
2023-01-17T01:31:11.077Z,0.35
2023-01-17T01:33:41.211Z,0.41
2023-01-17T01:36:10.496Z,0.28
2023-01-17T01:38:39.324Z,0.49
2023-01-17T01:41:07.865Z,0.40
2023-01-17T01:43:45.756Z,0.41
2023-01-17T01:46:17.905Z,0.26
2023-01-17T01:48:52.718Z,0.43
2023-01-17T01:51:27.473Z,0.29
2023-01-17T01:54:01.730Z,0.35
2023-01-17T01:56:32.277Z,0.30
2023-01-17T01:59:04.346Z,0.33
2023-01-17T02:01:37.236Z,0.24
2023-01-17T02:04:10.292Z,0.27
2023-01-17T02:06:41.402Z,0.30
2023-01-17T02:09:13.048Z,0.22
2023-01-17T02:11:42.713Z,0.15
2023-01-17T02:14:16.848Z,0.21
2023-01-17T02:16:58.321Z,0.13
2023-01-17T02:19:50.937Z,0.14
2023-01-17T02:22:45.980Z,0.11
2023-01-17T02:25:35.578Z,0.14
2023-01-17T02:28:23.711Z,0.03
2023-01-17T02:30:59.057Z,0.03
2023-01-17T02:33:35.513Z,0.04
2023-01-17T02:36:11.556Z,-0.01
2023-01-17T02:38:48.391Z,0.07
2023-01-17T02:41:22.446Z,0.03
2023-01-17T02:43:53.634Z,0.02
2023-01-17T02:46:23.723Z,0.02
2023-01-17T02:48:53.637Z,0.05
2023-01-17T02:51:59.571Z,0.07
2023-01-17T02:54:44.406Z,-0.03
2023-01-17T02:57:33.904Z,0.07
2023-01-17T03:00:08.245Z,0.05
2023-01-17T03:02:46.129Z,-0.04
2023-01-17T03:05:20.387Z,0.04
2023-01-17T03:07:50.255Z,0.03
2023-01-17T03:10:20.855Z,-0.04
2023-01-17T03:12:49.573Z,0.04
2023-01-17T03:15:19.064Z,-0.08
2023-01-17T03:17:52.169Z,-0.08
2023-01-17T03:20:22.659Z,-0.11
2023-01-17T03:22:51.378Z,-0.13
2023-01-17T03:25:19.955Z,-0.05
2023-01-17T03:27:48.851Z,-0.13
2023-01-17T03:30:17.979Z,-0.12
2023-01-17T03:32:46.504Z,-0.04
2023-01-17T03:35:16.893Z,-0.09
2023-01-17T03:37:45.401Z,-0.15
2023-01-17T03:40:14.166Z,-0.11
2023-01-17T03:42:42.967Z,-0.20
2023-01-17T03:45:12.489Z,-0.17
2023-01-17T03:47:40.929Z,-0.20
2023-01-17T03:50:11.151Z,-0.19
2023-01-17T03:52:41.196Z,-0.24
2023-01-17T03:55:10.678Z,-0.24
2023-01-17T03:57:39.223Z,-0.20
2023-01-17T04:00:09.106Z,-0.20
2023-01-17T04:02:39.707Z,-0.26
2023-01-17T04:05:08.891Z,-0.34
2023-01-17T04:07:37.969Z,-0.31
2023-01-17T04:10:09.329Z,-0.33
2023-01-17T04:12:38.866Z,-0.30
2023-01-17T04:15:08.543Z,-0.26
2023-01-17T04:17:39.001Z,-0.30
2023-01-17T04:20:09.034Z,-0.26
2023-01-17T04:22:38.008Z,-0.46
2023-01-17T04:25:09.172Z,-0.45
2023-01-17T04:27:37.936Z,-0.43
2023-01-17T04:30:07.507Z,-0.48
2023-01-17T04:32:39.446Z,-0.56
2023-01-17T04:35:09.716Z,-0.50
2023-01-17T04:37:38.822Z,-0.46
2023-01-17T04:40:12.519Z,-0.40
2023-01-17T04:42:41.663Z,-0.49
2023-01-17T04:45:13.530Z,-0.50
2023-01-17T04:47:42.427Z,-0.52
2023-01-17T04:50:13.151Z,-0.50
2023-01-17T04:52:42.248Z,-0.64
2023-01-17T04:55:14.183Z,-0.57
2023-01-17T04:57:43.257Z,-0.55
2023-01-17T05:00:13.050Z,-0.56
2023-01-17T05:02:42.154Z,-0.60
2023-01-17T05:05:13.688Z,-0.55
2023-01-17T05:07:42.644Z,-0.49
2023-01-17T05:10:13.846Z,-0.60
2023-01-17T05:12:43.526Z,-0.63
2023-01-17T05:15:12.714Z,-0.63
2023-01-17T05:17:43.891Z,-0.62
2023-01-17T05:20:13.617Z,-0.67
2023-01-17T05:22:42.397Z,-0.70
2023-01-17T05:25:11.464Z,-0.62
2023-01-17T05:27:41.804Z,-0.56
2023-01-17T05:30:12.307Z,-0.63
2023-01-17T05:32:41.103Z,-0.63
2023-01-17T05:35:10.864Z,-0.66
2023-01-17T05:37:40.144Z,-0.66
2023-01-17T05:40:11.096Z,-0.62
2023-01-17T05:42:46.800Z,-0.62
2023-01-17T05:45:17.220Z,-0.63
2023-01-17T05:47:46.585Z,-0.70
2023-01-17T05:50:17.086Z,-0.69
2023-01-17T05:52:51.370Z,-0.69
2023-01-17T05:55:20.704Z,-0.69
2023-01-17T05:57:51.214Z,-0.65
2023-01-17T06:00:20.958Z,-0.73
2023-01-17T06:02:49.903Z,-0.72
2023-01-17T06:05:18.844Z,-0.66
2023-01-17T06:07:48.292Z,-0.67
2023-01-17T06:10:17.872Z,-0.63
2023-01-17T06:12:49.565Z,-0.56
2023-01-17T06:15:20.508Z,-0.49
2023-01-17T06:17:49.318Z,-0.57
2023-01-17T06:20:20.153Z,-0.54
2023-01-17T06:22:49.294Z,-0.56
2023-01-17T06:25:17.905Z,-0.62
2023-01-17T06:27:46.735Z,-0.62
2023-01-17T06:30:16.936Z,-0.63
2023-01-17T06:32:53.247Z,-0.62
2023-01-17T06:35:22.112Z,-0.61
2023-01-17T06:37:55.481Z,-0.69
2023-01-17T06:40:24.494Z,-0.67
2023-01-17T06:42:53.684Z,-0.59
2023-01-17T06:45:25.951Z,-0.64
2023-01-17T06:47:56.403Z,-0.65
2023-01-17T06:50:25.770Z,-0.55
2023-01-17T06:52:58.685Z,-0.68
2023-01-17T06:55:28.981Z,-0.65
2023-01-17T06:57:59.685Z,-0.62
2023-01-17T07:00:29.543Z,-0.70
2023-01-17T07:03:00.101Z,-0.68
2023-01-17T07:05:29.465Z,-0.62
2023-01-17T07:07:59.382Z,-0.61
2023-01-17T07:10:28.190Z,-0.66
2023-01-17T07:13:01.272Z,-0.68
2023-01-17T07:15:32.568Z,-0.54
2023-01-17T07:18:05.743Z,-0.58
2023-01-17T07:20:39.095Z,-0.68
2023-01-17T07:23:09.152Z,-0.65
2023-01-17T07:25:38.989Z,-0.63
2023-01-17T07:28:08.988Z,-0.74
2023-01-17T07:30:38.889Z,-0.73
2023-01-17T07:33:11.806Z,-0.72
2023-01-17T07:35:41.207Z,-0.74
2023-01-17T07:38:15.224Z,-0.71
2023-01-17T07:40:45.171Z,-0.69
2023-01-17T07:43:14.935Z,-0.66
2023-01-17T07:45:44.492Z,-0.63
2023-01-17T07:48:15.325Z,-0.70
2023-01-17T07:50:44.279Z,-0.70
2023-01-17T07:53:13.622Z,-0.72
2023-01-17T07:55:42.581Z,-0.74
2023-01-17T07:58:16.167Z,-0.80
2023-01-17T08:00:45.441Z,-0.71
2023-01-17T08:03:17.562Z,-0.84
2023-01-17T08:05:55.087Z,-0.90
2023-01-17T08:08:24.652Z,-0.79
2023-01-17T08:10:53.742Z,-0.81
2023-01-17T08:13:29.911Z,-0.82
2023-01-17T08:16:02.642Z,-0.91
2023-01-17T08:18:39.422Z,-0.91
2023-01-17T08:21:20.627Z,-0.95
2023-01-17T08:23:51.033Z,-0.97
2023-01-17T08:26:22.806Z,-0.98
2023-01-17T08:28:56.199Z,-0.94
2023-01-17T08:31:36.074Z,-0.99
2023-01-17T08:34:06.400Z,-0.88
2023-01-17T08:36:35.351Z,-0.95
2023-01-17T08:39:04.205Z,-0.95
2023-01-17T08:41:33.067Z,-0.98
2023-01-17T08:44:01.886Z,-0.95
2023-01-17T08:46:32.188Z,-0.97
2023-01-17T08:49:05.834Z,-1.05
2023-01-17T08:51:36.229Z,-0.99
2023-01-17T08:54:05.267Z,-1.02
2023-01-17T08:56:34.008Z,-1.01
2023-01-17T08:59:03.443Z,-1.01
2023-01-17T09:01:41.069Z,-1.04
2023-01-17T09:04:10.549Z,-1.01
2023-01-17T09:06:42.365Z,-1.00
2023-01-17T09:09:11.989Z,-0.97
2023-01-17T09:11:41.101Z,-0.93
2023-01-17T09:14:12.867Z,-0.97
2023-01-17T09:16:44.621Z,-0.94
2023-01-17T09:19:13.567Z,-0.85
2023-01-17T09:21:43.684Z,-0.84
2023-01-17T09:24:12.845Z,-0.85
2023-01-17T09:26:41.544Z,-0.90
2023-01-17T09:29:11.070Z,-0.85
2023-01-17T09:31:42.532Z,-0.86
2023-01-17T09:34:11.626Z,-0.88
2023-01-17T09:36:41.487Z,-0.83
2023-01-17T09:39:20.971Z,-0.76
2023-01-17T09:42:00.898Z,-0.85
2023-01-17T09:44:38.365Z,-0.91
2023-01-17T09:47:17.905Z,-0.94
2023-01-17T09:49:48.026Z,-0.88
2023-01-17T09:52:19.811Z,-0.88
2023-01-17T09:54:51.673Z,-0.85
2023-01-17T09:57:44.751Z,-0.88
2023-01-17T10:00:34.286Z,-0.94
2023-01-17T10:03:28.934Z,-0.92
2023-01-17T10:06:15.922Z,-0.99
2023-01-17T10:09:07.765Z,-0.95
2023-01-17T10:11:50.869Z,-0.89
2023-01-17T10:14:41.862Z,-0.91
2023-01-17T10:17:31.588Z,-0.91
2023-01-17T10:20:13.229Z,-0.97
2023-01-17T10:22:58.204Z,-1.02
2023-01-17T10:25:47.003Z,-0.91
2023-01-17T10:28:22.031Z,-0.94
2023-01-17T10:30:54.027Z,-0.97
2023-01-17T10:33:52.350Z,-0.98
2023-01-17T10:36:25.756Z,-0.92
2023-01-17T10:39:00.924Z,-0.90
2023-01-17T10:41:39.223Z,-0.94
2023-01-17T10:44:20.728Z,-0.92
2023-01-17T10:47:02.344Z,-0.87
2023-01-17T10:49:34.317Z,-0.85
2023-01-17T10:52:45.603Z,-0.78
2023-01-17T10:55:33.634Z,-0.82
2023-01-17T10:58:05.522Z,-0.79
2023-01-17T11:00:45.229Z,-0.70
2023-01-17T11:03:16.267Z,-0.69
2023-01-17T11:05:47.481Z,-0.65
2023-01-17T11:08:22.772Z,-0.70
2023-01-17T11:10:59.273Z,-0.63
2023-01-17T11:13:35.406Z,-0.64
2023-01-17T11:16:12.683Z,-0.60
2023-01-17T11:18:44.190Z,-0.50
2023-01-17T11:21:18.294Z,-0.49
2023-01-17T11:23:49.663Z,-0.46
2023-01-17T11:26:27.581Z,-0.57
2023-01-17T11:29:16.999Z,-0.51
2023-01-17T11:31:48.809Z,-0.41
2023-01-17T11:34:20.316Z,-0.38
2023-01-17T11:36:50.250Z,-0.45
2023-01-17T11:39:29.618Z,-0.37
2023-01-17T11:41:58.642Z,-0.33
2023-01-17T11:44:32.709Z,-0.43
2023-01-17T11:47:21.771Z,-0.50
2023-01-17T11:49:51.413Z,-0.45
2023-01-17T11:52:24.983Z,-0.40
2023-01-17T11:54:56.775Z,-0.38
2023-01-17T11:57:28.294Z,-0.31
2023-01-17T12:00:13.286Z,-0.43
2023-01-17T12:03:06.088Z,-0.32
2023-01-17T12:05:47.466Z,-0.31
2023-01-17T12:08:31.460Z,-0.20
2023-01-17T12:11:11.633Z,-0.28
2023-01-17T12:14:01.228Z,-0.12
2023-01-17T12:16:50.676Z,-0.17
2023-01-17T12:19:38.186Z,-0.25
2023-01-17T12:22:23.862Z,-0.19
2023-01-17T12:25:08.940Z,-0.28
2023-01-17T12:27:47.489Z,-0.37
2023-01-17T12:30:46.073Z,-0.23
2023-01-17T12:33:22.250Z,-0.30
2023-01-17T12:35:57.085Z,-0.23
2023-01-17T12:38:33.210Z,-0.17
2023-01-17T12:41:07.660Z,-0.25
2023-01-17T12:43:43.412Z,-0.06
2023-01-17T12:46:21.356Z,-0.14
2023-01-17T12:48:53.690Z,-0.21
2023-01-17T12:51:29.595Z,-0.12
2023-01-17T12:54:05.642Z,-0.18
2023-01-17T12:56:39.372Z,-0.18
2023-01-17T12:59:16.813Z,-0.13
2023-01-17T13:01:48.238Z,-0.06
2023-01-17T13:04:25.840Z,-0.09
2023-01-17T13:07:06.261Z,0.01
2023-01-17T13:09:41.151Z,-0.01
2023-01-17T13:12:15.007Z,-0.04
2023-01-17T13:14:47.915Z,-0.02
2023-01-17T13:17:30.106Z,-0.08
2023-01-17T13:20:04.195Z,-0.18
2023-01-17T13:22:37.229Z,-0.13
2023-01-17T13:25:17.663Z,-0.13
2023-01-17T13:28:18.659Z,-0.10
2023-01-17T13:31:13.204Z,-0.04
2023-01-17T13:34:13.070Z,0.02
2023-01-17T13:36:54.165Z,-0.09
2023-01-17T13:39:45.424Z,-0.06
2023-01-17T13:42:26.025Z,-0.05
2023-01-17T13:44:55.234Z,-0.10
2023-01-17T13:47:43.065Z,-0.09
2023-01-17T13:50:49.049Z,-0.01
2023-01-17T13:54:00.573Z,-0.09
2023-01-17T13:56:38.286Z,-0.15
2023-01-17T13:59:33.721Z,-0.10
2023-01-17T14:02:02.774Z,-0.06
2023-01-17T14:05:17.363Z,0.03
2023-01-17T14:07:49.784Z,-0.08
2023-01-17T14:10:30.589Z,-0.01
2023-01-17T14:13:04.704Z,-0.02
2023-01-17T14:15:36.261Z,0.08
2023-01-17T14:18:08.485Z,0.08
2023-01-17T14:21:08.147Z,0.10
2023-01-17T14:24:05.428Z,0.14
2023-01-17T14:26:39.227Z,0.09
2023-01-17T14:29:52.495Z,0.06
2023-01-17T14:32:24.716Z,0.11
2023-01-17T14:34:55.103Z,0.08
2023-01-17T14:37:57.858Z,0.09
2023-01-17T14:40:30.870Z,0.23
2023-01-17T14:43:09.566Z,0.12
2023-01-17T14:45:58.508Z,0.11
2023-01-17T14:48:28.358Z,0.17
2023-01-17T14:51:00.413Z,0.19
2023-01-17T14:53:30.850Z,0.18
2023-01-17T14:56:02.559Z,0.18
2023-01-17T14:58:33.882Z,0.18
2023-01-17T15:01:08.328Z,0.21
2023-01-17T15:03:54.872Z,0.18
2023-01-17T15:06:27.251Z,0.23
2023-01-17T15:08:57.501Z,0.25
2023-01-17T15:11:28.715Z,0.20
2023-01-17T15:14:00.773Z,0.22
2023-01-17T15:16:33.987Z,0.30
2023-01-17T15:19:12.528Z,0.29
2023-01-17T15:21:43.958Z,0.37
2023-01-17T15:24:21.566Z,0.23
2023-01-17T15:26:51.984Z,0.31
2023-01-17T15:29:28.410Z,0.31
2023-01-17T15:32:02.933Z,0.35
2023-01-17T15:34:34.029Z,0.43
2023-01-17T15:37:09.061Z,0.47
2023-01-17T15:39:41.889Z,0.43
2023-01-17T15:42:23.285Z,0.33
2023-01-17T15:44:57.043Z,0.29
2023-01-17T15:47:38.404Z,0.25
2023-01-17T15:50:30.415Z,0.32
2023-01-17T15:53:08.250Z,0.26
2023-01-17T15:55:42.623Z,0.33
2023-01-17T15:58:25.095Z,0.32
2023-01-17T16:00:54.361Z,0.44
2023-01-17T16:03:30.381Z,0.47
2023-01-17T16:06:00.882Z,0.49
2023-01-17T16:08:40.831Z,0.37
2023-01-17T16:11:14.015Z,0.43
2023-01-17T16:13:47.431Z,0.40
2023-01-17T16:16:22.925Z,0.42
2023-01-17T16:19:01.151Z,0.42
2023-01-17T16:21:33.809Z,0.46
2023-01-17T16:24:04.636Z,0.44
2023-01-17T16:26:36.155Z,0.41
2023-01-17T16:29:12.471Z,0.47
2023-01-17T16:31:41.548Z,0.47
2023-01-17T16:34:13.611Z,0.40
2023-01-17T16:36:44.854Z,0.49
2023-01-17T16:39:16.892Z,0.45
2023-01-17T16:41:45.805Z,0.48
2023-01-17T16:44:14.571Z,0.40
2023-01-17T16:46:45.248Z,0.48
2023-01-17T16:49:15.553Z,0.54
2023-01-17T16:51:50.416Z,0.53
2023-01-17T16:54:20.651Z,0.50
2023-01-17T16:56:51.179Z,0.52
2023-01-17T16:59:26.108Z,0.47
2023-01-17T17:01:55.127Z,0.54
2023-01-17T17:04:25.349Z,0.63
2023-01-17T17:06:54.272Z,0.62
2023-01-17T17:09:23.453Z,0.55
2023-01-17T17:11:55.829Z,0.47
2023-01-17T17:14:24.630Z,0.53
2023-01-17T17:16:53.430Z,0.55
2023-01-17T17:19:22.161Z,0.50
2023-01-17T17:21:52.212Z,0.49
2023-01-17T17:24:28.328Z,0.53
2023-01-17T17:26:57.835Z,0.44
2023-01-17T17:29:27.120Z,0.50
2023-01-17T17:31:56.405Z,0.50
2023-01-17T17:34:28.007Z,0.50
2023-01-17T17:36:58.178Z,0.61
2023-01-17T17:39:27.296Z,0.52
2023-01-17T17:41:56.039Z,0.49
2023-01-17T17:44:24.776Z,0.58
2023-01-17T17:46:53.683Z,0.57
2023-01-17T17:49:23.439Z,0.68
2023-01-17T17:51:53.047Z,0.68
2023-01-17T17:54:27.619Z,0.55
2023-01-17T17:56:56.560Z,0.56
2023-01-17T17:59:25.268Z,0.60
2023-01-17T18:01:54.307Z,0.62
2023-01-17T18:04:23.356Z,0.74
2023-01-17T18:06:51.866Z,0.66
2023-01-17T18:09:20.650Z,0.59
2023-01-17T18:11:51.379Z,0.59
2023-01-17T18:14:24.137Z,0.71
2023-01-17T18:16:53.490Z,0.61
2023-01-17T18:19:27.621Z,0.75
2023-01-17T18:21:56.470Z,0.76
2023-01-17T18:24:26.489Z,0.66
2023-01-17T18:26:58.310Z,0.79
2023-01-17T18:29:31.374Z,0.70
2023-01-17T18:32:02.995Z,0.76
2023-01-17T18:34:33.928Z,0.74
2023-01-17T18:37:02.632Z,0.82
2023-01-17T18:39:31.777Z,0.83
2023-01-17T18:42:02.855Z,0.84
2023-01-17T18:44:32.695Z,0.89
2023-01-17T18:47:04.842Z,0.97
2023-01-17T18:49:34.103Z,0.99
2023-01-17T18:52:02.952Z,0.83
2023-01-17T18:54:32.131Z,0.74
2023-01-17T18:57:02.662Z,0.82
2023-01-17T18:59:31.372Z,0.82
2023-01-17T19:01:59.977Z,0.75
2023-01-17T19:04:30.447Z,0.88
2023-01-17T19:06:59.409Z,0.81
2023-01-17T19:09:32.575Z,0.78
2023-01-17T19:12:04.174Z,0.80
2023-01-17T19:14:32.876Z,0.97
2023-01-17T19:17:01.933Z,0.83
2023-01-17T19:19:30.728Z,0.89
2023-01-17T19:22:00.397Z,0.94
2023-01-17T19:24:32.488Z,0.97
2023-01-17T19:27:03.047Z,0.90
2023-01-17T19:29:31.889Z,0.98
2023-01-17T19:32:00.670Z,1.01
2023-01-17T19:34:29.750Z,1.06
2023-01-17T19:36:58.562Z,1.06
2023-01-17T19:39:30.802Z,1.03
2023-01-17T19:41:59.447Z,0.94
2023-01-17T19:44:30.126Z,1.02
2023-01-17T19:46:59.119Z,0.96
2023-01-17T19:49:29.927Z,0.95
2023-01-17T19:52:00.797Z,0.96
2023-01-17T19:54:31.943Z,0.98
2023-01-17T19:57:00.897Z,0.98
2023-01-17T19:59:31.114Z,1.11
2023-01-17T20:02:01.246Z,1.07
2023-01-17T20:04:30.234Z,1.17
2023-01-17T20:06:58.880Z,1.11
2023-01-17T20:09:27.972Z,1.05
2023-01-17T20:11:56.896Z,1.08
2023-01-17T20:14:25.574Z,1.07
2023-01-17T20:16:57.598Z,0.98
2023-01-17T20:19:26.415Z,1.06
2023-01-17T20:21:55.893Z,1.19
2023-01-17T20:24:27.919Z,1.08
2023-01-17T20:26:58.233Z,1.10
2023-01-17T20:29:27.207Z,1.06
2023-01-17T20:31:57.394Z,1.08
2023-01-17T20:34:26.213Z,1.14
2023-01-17T20:36:59.475Z,1.07
2023-01-17T20:39:28.350Z,1.11
2023-01-17T20:41:57.797Z,1.09
2023-01-17T20:44:26.385Z,1.18
2023-01-17T20:46:57.107Z,1.22
2023-01-17T20:49:26.018Z,1.30
2023-01-17T20:51:55.610Z,1.25
2023-01-17T20:54:24.736Z,1.12
2023-01-17T20:56:53.946Z,1.15
2023-01-17T20:59:23.689Z,1.28
2023-01-17T21:01:53.123Z,1.36
2023-01-17T21:04:27.723Z,1.28
2023-01-17T21:06:56.571Z,1.21
2023-01-17T21:09:25.640Z,1.38
2023-01-17T21:11:54.606Z,1.37
2023-01-17T21:14:23.444Z,1.37
2023-01-17T21:16:53.052Z,1.32
2023-01-17T21:19:26.304Z,1.44
2023-01-17T21:21:56.422Z,1.34
2023-01-17T21:24:25.136Z,1.26
2023-01-17T21:26:57.218Z,1.23
2023-01-17T21:29:31.997Z,1.22
2023-01-17T21:32:00.902Z,1.38
2023-01-17T21:34:33.039Z,1.27
2023-01-17T21:37:01.522Z,1.39
2023-01-17T21:39:30.609Z,1.33
2023-01-17T21:41:59.408Z,1.23
2023-01-17T21:44:28.011Z,1.23
2023-01-17T21:46:56.994Z,1.29
2023-01-17T21:49:25.679Z,1.30
2023-01-17T21:52:13.500Z,1.28
2023-01-17T21:54:59.646Z,1.19
2023-01-17T21:57:54.518Z,1.33
2023-01-17T22:00:23.572Z,1.36
2023-01-17T22:02:52.275Z,1.37
2023-01-17T22:05:21.145Z,1.28
2023-01-17T22:08:08.209Z,1.26
2023-01-17T22:10:44.726Z,1.32
2023-01-17T22:13:14.789Z,1.32
2023-01-17T22:15:43.862Z,1.44
2023-01-17T22:18:12.885Z,1.35
2023-01-17T22:20:42.307Z,1.27
2023-01-17T22:23:12.937Z,1.41
2023-01-17T22:25:41.603Z,1.46
2023-01-17T22:28:10.248Z,1.46
2023-01-17T22:30:38.988Z,1.42
2023-01-17T22:33:07.801Z,1.35
2023-01-17T22:35:36.629Z,1.39
2023-01-17T22:38:05.217Z,1.41
2023-01-17T22:40:38.495Z,1.52
2023-01-17T22:43:07.401Z,1.31
2023-01-17T22:45:36.019Z,1.27
2023-01-17T22:48:04.771Z,1.44
2023-01-17T22:50:35.430Z,1.43
2023-01-17T22:53:04.294Z,1.43
2023-01-17T22:55:34.871Z,1.31
2023-01-17T22:58:03.567Z,1.39
2023-01-17T23:00:32.363Z,1.46
2023-01-17T23:03:01.217Z,1.38
2023-01-17T23:05:30.003Z,1.40
2023-01-17T23:08:02.122Z,1.37
2023-01-17T23:10:48.428Z,1.41
2023-01-17T23:13:18.460Z,1.39
2023-01-17T23:16:04.566Z,1.33
2023-01-17T23:18:50.811Z,1.32
2023-01-17T23:21:19.360Z,1.34
2023-01-17T23:23:47.799Z,1.28
2023-01-17T23:26:17.094Z,1.22
2023-01-17T23:28:45.907Z,1.18
2023-01-17T23:31:14.515Z,1.24
2023-01-17T23:33:43.002Z,1.35
2023-01-17T23:36:11.926Z,1.25
2023-01-17T23:38:44.278Z,1.30
2023-01-17T23:41:30.016Z,1.41
2023-01-17T23:44:00.367Z,1.21
2023-01-17T23:46:30.405Z,1.05
2023-01-17T23:48:58.914Z,1.16
2023-01-17T23:51:27.415Z,1.21
2023-01-17T23:54:05.545Z,1.18
2023-01-17T23:56:34.161Z,1.21
2023-01-17T23:59:04.583Z,1.16
